Terminal Aerodrome Forecast
Issued by NWS

Home | Current Version | Previous Version | Text Only | Print | Product List | Glossary On
Versions: 1 2 3 4 5 6 7 8 9 10 11 12 13 14
000
FTUS42 KFFC 231700
TAFRYY
TAF
KRYY 231737Z 2318/2418 10010G18KT P6SM SCT045
     FM232300 09010KT P6SM SCT035
     FM241400 07010G16KT P6SM SCT025 SCT045
     FM241700 06010G18KT P6SM BKN040=

USA.gov is the U.S. government's official web portal to all federal, state and local government web resources and services.